DLH453N KLAX-EDDM
Flight info
| Callsign | DLH453N |
|---|---|
| Flight time | N/A |
| Altitude | 35000 |
| Route | DOTSS2 CLEEE DCT PKE DCT DRK DCT INW DCT LAA DCT KD54A DCT KP66G DCT KG75K DCT BAE DCT ODAXY/N0465F370 DCT YBG DCT YBC Q910 TABRU DCT KODIK/M081F370 DCT 55N050W 5630N04000W 5630N03000W 56N020W DCT PIKIL/N0464F370 DCT SOVED DCT KUGUR DCT BELOX/N0467F390 L603 DOLAS DCT NAVPI DCT OTMEC DCT DODEN DCT TABUM DCT BOMBI T104 HAREM/N0461F350 T104 ELMOX/N0418F270 T104 ROKIL ROKIL1A |
| Aircraft | A346/H-SDE2E3FGHIJ3J4J5M1RWXY/LB1D1 |
Departure
| Time | 2026-05-06 01:55 |
|---|---|
| Airport | Los Angeles International Airport (KLAX) |
Arrival
| Time | N/A |
|---|---|
| Airport | Munich Airport (EDDM) |
| Time | Latitude | Longitude | Altitude | Speed | Heading |
|---|---|---|---|---|---|
| 2026-05-06 01:06 | 33.94099 | -118.41092 | 92 ft | 0 kts | 83° |
| 2026-05-06 01:38 | 33.94096 | -118.41114 | 101 ft | 4 kts | 83° |
| 2026-05-06 01:39 | 33.94093 | -118.41144 | 101 ft | 2 kts | 83° |
| 2026-05-06 01:39 | 33.94092 | -118.41170 | 102 ft | 4 kts | 99° |
| 2026-05-06 01:39 | 33.94098 | -118.41190 | 103 ft | 4 kts | 136° |
| 2026-05-06 01:39 | 33.94111 | -118.41197 | 103 ft | 3 kts | 173° |
| 2026-05-06 01:40 | 33.94138 | -118.41201 | 101 ft | 4 kts | 173° |
| 2026-05-06 01:40 | 33.94149 | -118.41203 | 101 ft | 0 kts | 173° |
| 2026-05-06 01:44 | 33.94147 | -118.41203 | 101 ft | 1 kts | 173° |
| 2026-05-06 01:44 | 33.94138 | -118.41201 | 101 ft | 3 kts | 173° |
| 2026-05-06 01:45 | 33.94121 | -118.41199 | 101 ft | 2 kts | 172° |
| 2026-05-06 01:45 | 33.94087 | -118.41193 | 101 ft | 7 kts | 173° |
| 2026-05-06 01:45 | 33.94031 | -118.41185 | 102 ft | 10 kts | 173° |
| 2026-05-06 01:45 | 33.93953 | -118.41173 | 102 ft | 12 kts | 173° |
| 2026-05-06 01:46 | 33.93862 | -118.41160 | 102 ft | 14 kts | 173° |
| 2026-05-06 01:46 | 33.93789 | -118.41149 | 102 ft | 6 kts | 169° |
| 2026-05-06 01:46 | 33.93770 | -118.41116 | 104 ft | 6 kts | 96° |
| 2026-05-06 01:46 | 33.93772 | -118.41053 | 103 ft | 9 kts | 85° |
| 2026-05-06 01:47 | 33.93779 | -118.40971 | 101 ft | 11 kts | 84° |
| 2026-05-06 01:47 | 33.93787 | -118.40873 | 102 ft | 12 kts | 83° |
| 2026-05-06 01:47 | 33.93798 | -118.40765 | 105 ft | 14 kts | 83° |
| 2026-05-06 01:47 | 33.93810 | -118.40647 | 105 ft | 15 kts | 83° |
| 2026-05-06 01:48 | 33.93823 | -118.40520 | 106 ft | 15 kts | 83° |
| 2026-05-06 01:48 | 33.93836 | -118.40391 | 105 ft | 16 kts | 83° |
| 2026-05-06 01:48 | 33.93851 | -118.40256 | 105 ft | 16 kts | 82° |
| 2026-05-06 01:48 | 33.93867 | -118.40117 | 107 ft | 17 kts | 82° |
| 2026-05-06 01:49 | 33.93882 | -118.39974 | 107 ft | 17 kts | 83° |
| 2026-05-06 01:49 | 33.93898 | -118.39827 | 106 ft | 18 kts | 83° |
| 2026-05-06 01:49 | 33.93912 | -118.39665 | 104 ft | 20 kts | 84° |
| 2026-05-06 01:49 | 33.93930 | -118.39489 | 103 ft | 22 kts | 83° |
| 2026-05-06 01:50 | 33.93950 | -118.39297 | 103 ft | 24 kts | 83° |
| 2026-05-06 01:50 | 33.93972 | -118.39094 | 102 ft | 25 kts | 83° |
| 2026-05-06 01:50 | 33.93993 | -118.38884 | 102 ft | 26 kts | 84° |
| 2026-05-06 01:50 | 33.94011 | -118.38673 | 106 ft | 23 kts | 84° |
| 2026-05-06 01:51 | 33.94029 | -118.38511 | 104 ft | 15 kts | 82° |
| 2026-05-06 01:51 | 33.94042 | -118.38384 | 106 ft | 16 kts | 82° |
| 2026-05-06 01:51 | 33.94057 | -118.38251 | 103 ft | 17 kts | 82° |
| 2026-05-06 01:51 | 33.94068 | -118.38141 | 102 ft | 13 kts | 83° |
| 2026-05-06 01:52 | 33.94079 | -118.38036 | 101 ft | 7 kts | 87° |
| 2026-05-06 01:52 | 33.94068 | -118.38015 | 103 ft | 4 kts | 145° |
| 2026-05-06 01:52 | 33.94032 | -118.38000 | 102 ft | 6 kts | 172° |
| 2026-05-06 01:52 | 33.94005 | -118.38007 | 102 ft | 3 kts | 216° |
| 2026-05-06 01:53 | 33.93990 | -118.38032 | 104 ft | 4 kts | 245° |
| 2026-05-06 01:53 | 33.93981 | -118.38069 | 103 ft | 5 kts | 259° |
| 2026-05-06 01:53 | 33.93980 | -118.38076 | 102 ft | 0 kts | 260° |
| 2026-05-06 01:54 | 33.93958 | -118.38270 | 106 ft | 51 kts | 264° |
| 2026-05-06 01:54 | 33.93892 | -118.38922 | 105 ft | 104 kts | 263° |
| 2026-05-06 01:54 | 33.93783 | -118.39981 | 107 ft | 149 kts | 263° |
| 2026-05-06 01:54 | 33.93636 | -118.41377 | 158 ft | 181 kts | 262° |
| 2026-05-06 01:55 | 33.93478 | -118.42892 | 645 ft | 184 kts | 261° |
| 2026-05-06 01:55 | 33.93315 | -118.44432 | 1206 ft | 186 kts | 263° |
| 2026-05-06 01:55 | 33.93050 | -118.45962 | 1769 ft | 188 kts | 249° |
| 2026-05-06 01:55 | 33.92364 | -118.47306 | 2212 ft | 192 kts | 233° |
| 2026-05-06 01:56 | 33.91476 | -118.48570 | 2555 ft | 202 kts | 232° |
| 2026-05-06 01:56 | 33.90533 | -118.49902 | 2837 ft | 215 kts | 232° |
| 2026-05-06 01:56 | 33.89521 | -118.51326 | 3066 ft | 234 kts | 231° |
| 2026-05-06 01:56 | 33.88408 | -118.52860 | 3320 ft | 251 kts | 230° |
| 2026-05-06 01:57 | 33.87215 | -118.54478 | 3700 ft | 264 kts | 229° |
| 2026-05-06 01:57 | 33.85823 | -118.55954 | 4302 ft | 270 kts | 210° |
| 2026-05-06 01:57 | 33.84065 | -118.56679 | 4952 ft | 276 kts | 186° |
| 2026-05-06 01:57 | 33.82144 | -118.56487 | 5621 ft | 281 kts | 162° |
| 2026-05-06 01:58 | 33.80420 | -118.55379 | 6272 ft | 285 kts | 141° |
| 2026-05-06 01:58 | 33.78770 | -118.54062 | 6977 ft | 286 kts | 155° |
| 2026-05-06 01:58 | 33.76866 | -118.53368 | 7652 ft | 289 kts | 172° |
| 2026-05-06 01:58 | 33.74860 | -118.53093 | 8340 ft | 291 kts | 174° |
| 2026-05-06 01:59 | 33.72850 | -118.52771 | 9062 ft | 293 kts | 171° |
| 2026-05-06 01:59 | 33.70859 | -118.52160 | 9602 ft | 300 kts | 149° |
| 2026-05-06 01:59 | 33.69319 | -118.50524 | 10198 ft | 297 kts | 120° |
| 2026-05-06 01:59 | 33.68471 | -118.48215 | 10694 ft | 303 kts | 107° |
| 2026-05-06 02:00 | 33.67783 | -118.45751 | 10980 ft | 319 kts | 105° |
| 2026-05-06 02:00 | 33.67061 | -118.43164 | 11262 ft | 334 kts | 106° |
| 2026-05-06 02:00 | 33.66290 | -118.40453 | 11535 ft | 350 kts | 107° |
| 2026-05-06 02:00 | 33.65475 | -118.37679 | 11787 ft | 365 kts | 108° |
| 2026-05-06 02:01 | 33.64798 | -118.34686 | 12066 ft | 378 kts | 98° |
| 2026-05-06 02:01 | 33.64472 | -118.31513 | 12505 ft | 385 kts | 90° |
| 2026-05-06 02:01 | 33.64427 | -118.28284 | 13146 ft | 388 kts | 89° |
| 2026-05-06 02:01 | 33.64442 | -118.25027 | 13798 ft | 391 kts | 88° |
| 2026-05-06 02:02 | 33.64458 | -118.21742 | 14353 ft | 395 kts | 87° |
| 2026-05-06 02:02 | 33.64468 | -118.18428 | 14945 ft | 398 kts | 88° |
| 2026-05-06 02:02 | 33.64476 | -118.15095 | 15537 ft | 399 kts | 88° |
| 2026-05-06 02:02 | 33.64476 | -118.11749 | 16149 ft | 401 kts | 88° |
| 2026-05-06 02:03 | 33.64478 | -118.08376 | 16765 ft | 404 kts | 89° |
| 2026-05-06 02:03 | 33.64475 | -118.04990 | 17340 ft | 407 kts | 89° |
| 2026-05-06 02:03 | 33.64468 | -118.01577 | 17909 ft | 410 kts | 88° |
| 2026-05-06 02:03 | 33.64465 | -117.98142 | 18480 ft | 412 kts | 89° |
| 2026-05-06 02:04 | 33.64457 | -117.94684 | 18984 ft | 415 kts | 89° |
| 2026-05-06 02:04 | 33.64449 | -117.91211 | 19490 ft | 417 kts | 89° |
| 2026-05-06 02:04 | 33.64442 | -117.87706 | 19952 ft | 421 kts | 89° |
| 2026-05-06 02:04 | 33.64438 | -117.84180 | 20413 ft | 424 kts | 87° |
| 2026-05-06 02:05 | 33.64586 | -117.80639 | 20905 ft | 425 kts | 84° |
| 2026-05-06 02:05 | 33.64961 | -117.77105 | 21375 ft | 427 kts | 79° |
| 2026-05-06 02:05 | 33.65551 | -117.73601 | 21849 ft | 429 kts | 76° |
| 2026-05-06 02:05 | 33.66222 | -117.70092 | 22304 ft | 432 kts | 75° |
| 2026-05-06 02:06 | 33.66907 | -117.66560 | 22787 ft | 434 kts | 76° |
| 2026-05-06 02:06 | 33.67597 | -117.63012 | 23246 ft | 437 kts | 75° |
| 2026-05-06 02:06 | 33.68279 | -117.59485 | 23685 ft | 440 kts | 76° |
| 2026-05-06 02:06 | 33.68970 | -117.55890 | 24043 ft | 443 kts | 76° |
| 2026-05-06 02:07 | 33.69665 | -117.52265 | 24385 ft | 446 kts | 76° |
| 2026-05-06 02:07 | 33.70362 | -117.48607 | 24713 ft | 450 kts | 76° |
| 2026-05-06 02:07 | 33.71063 | -117.44926 | 25022 ft | 454 kts | 75° |
| 2026-05-06 02:07 | 33.71767 | -117.41213 | 25328 ft | 457 kts | 76° |
| 2026-05-06 02:08 | 33.72482 | -117.37462 | 25643 ft | 461 kts | 75° |
| 2026-05-06 02:08 | 33.73196 | -117.33695 | 25950 ft | 464 kts | 75° |
| 2026-05-06 02:08 | 33.73918 | -117.29890 | 26271 ft | 468 kts | 76° |
| 2026-05-06 02:08 | 33.74545 | -117.26029 | 26561 ft | 472 kts | 80° |
| 2026-05-06 02:09 | 33.74925 | -117.22087 | 26873 ft | 476 kts | 84° |
| 2026-05-06 02:09 | 33.75051 | -117.18084 | 27168 ft | 481 kts | 89° |
| 2026-05-06 02:09 | 33.74997 | -117.14044 | 27537 ft | 484 kts | 90° |
| 2026-05-06 02:09 | 33.74905 | -117.09984 | 27846 ft | 487 kts | 90° |
| 2026-05-06 02:10 | 33.74807 | -117.05906 | 28258 ft | 487 kts | 90° |
| 2026-05-06 02:10 | 33.74712 | -117.01835 | 28746 ft | 487 kts | 90° |
| 2026-05-06 02:10 | 33.74623 | -116.97771 | 29204 ft | 486 kts | 90° |
| 2026-05-06 02:10 | 33.74536 | -116.93702 | 29646 ft | 486 kts | 90° |
| 2026-05-06 02:11 | 33.74448 | -116.89647 | 30074 ft | 486 kts | 90° |
| 2026-05-06 02:11 | 33.74357 | -116.85568 | 30423 ft | 486 kts | 90° |
| 2026-05-06 02:11 | 33.74260 | -116.81498 | 30774 ft | 486 kts | 89° |
| 2026-05-06 02:11 | 33.74172 | -116.77428 | 31090 ft | 486 kts | 90° |
| 2026-05-06 02:12 | 33.74081 | -116.73367 | 31441 ft | 486 kts | 90° |
| 2026-05-06 02:12 | 33.73985 | -116.69297 | 31709 ft | 487 kts | 90° |
| 2026-05-06 02:12 | 33.73889 | -116.65212 | 31983 ft | 488 kts | 90° |
| 2026-05-06 02:12 | 33.73788 | -116.61130 | 32261 ft | 489 kts | 90° |
| 2026-05-06 02:13 | 33.73690 | -116.57037 | 32532 ft | 490 kts | 91° |
| 2026-05-06 02:13 | 33.73593 | -116.52929 | 32817 ft | 491 kts | 92° |
| 2026-05-06 02:13 | 33.73488 | -116.48808 | 32934 ft | 495 kts | 92° |
| 2026-05-06 02:13 | 33.73374 | -116.44650 | 33125 ft | 498 kts | 92° |
| 2026-05-06 02:14 | 33.73260 | -116.40482 | 33386 ft | 499 kts | 92° |
| 2026-05-06 02:14 | 33.73183 | -116.37660 | 33559 ft | 500 kts | 92° |
| 2026-05-06 02:14 | 33.73034 | -116.32118 | 33904 ft | 501 kts | 92° |
| 2026-05-06 02:14 | 33.72957 | -116.29283 | 34033 ft | 502 kts | 92° |
| 2026-05-06 02:15 | 33.72806 | -116.23705 | 34266 ft | 505 kts | 92° |
| 2026-05-06 02:15 | 33.72696 | -116.19483 | 34414 ft | 507 kts | 92° |
| 2026-05-06 02:15 | 33.72718 | -116.15231 | 34573 ft | 509 kts | 88° |
| 2026-05-06 02:15 | 33.72941 | -116.10971 | 34761 ft | 511 kts | 85° |
| 2026-05-06 02:16 | 33.73781 | -116.03867 | 34866 ft | 513 kts | 79° |
| 2026-05-06 02:16 | 33.75553 | -115.95559 | 34878 ft | 513 kts | 72° |
| 2026-05-06 02:17 | 33.77806 | -115.87443 | 34880 ft | 515 kts | 71° |
| 2026-05-06 02:17 | 33.80099 | -115.79258 | 34880 ft | 516 kts | 71° |
| 2026-05-06 02:18 | 33.82371 | -115.71064 | 34879 ft | 516 kts | 71° |
| 2026-05-06 02:18 | 33.84631 | -115.62864 | 34877 ft | 516 kts | 71° |
| 2026-05-06 02:19 | 33.86891 | -115.54635 | 34877 ft | 518 kts | 72° |
| 2026-05-06 02:19 | 33.89147 | -115.46384 | 34873 ft | 518 kts | 72° |
| 2026-05-06 02:20 | 33.92523 | -115.33998 | 34871 ft | 518 kts | 72° |
| 2026-05-06 02:21 | 33.94769 | -115.25736 | 34864 ft | 519 kts | 72° |
| 2026-05-06 02:21 | 33.96998 | -115.17498 | 34866 ft | 520 kts | 72° |
| 2026-05-06 02:22 | 33.99237 | -115.09202 | 34860 ft | 519 kts | 72° |
| 2026-05-06 02:22 | 34.01472 | -115.00894 | 34858 ft | 520 kts | 72° |
| 2026-05-06 02:23 | 34.03705 | -114.92581 | 34857 ft | 522 kts | 72° |
| 2026-05-06 02:23 | 34.05936 | -114.84233 | 34859 ft | 522 kts | 72° |
| 2026-05-06 02:24 | 34.08161 | -114.75888 | 34857 ft | 522 kts | 72° |
| 2026-05-06 02:24 | 34.10383 | -114.67538 | 34856 ft | 522 kts | 72° |
| 2026-05-06 02:25 | 34.12715 | -114.59224 | 34851 ft | 522 kts | 71° |
| 2026-05-06 02:25 | 34.15080 | -114.50923 | 34849 ft | 522 kts | 71° |
| 2026-05-06 02:26 | 34.17429 | -114.42616 | 34850 ft | 522 kts | 71° |
| 2026-05-06 02:26 | 34.19771 | -114.34294 | 34844 ft | 523 kts | 72° |
| 2026-05-06 02:27 | 34.22104 | -114.25957 | 34846 ft | 523 kts | 72° |
| 2026-05-06 02:27 | 34.24416 | -114.17669 | 34845 ft | 523 kts | 72° |
| 2026-05-06 02:28 | 34.26741 | -114.09310 | 34844 ft | 523 kts | 72° |
| 2026-05-06 02:28 | 34.29064 | -114.00950 | 34843 ft | 525 kts | 72° |
| 2026-05-06 02:29 | 34.31386 | -113.92551 | 34856 ft | 526 kts | 72° |
| 2026-05-06 02:29 | 34.33683 | -113.84202 | 34846 ft | 519 kts | 72° |
| 2026-05-06 02:30 | 34.35963 | -113.75913 | 34844 ft | 518 kts | 72° |
| 2026-05-06 02:30 | 34.38245 | -113.67607 | 34838 ft | 521 kts | 72° |
| 2026-05-06 02:31 | 34.40525 | -113.59261 | 34849 ft | 522 kts | 72° |
| 2026-05-06 02:31 | 34.42803 | -113.50894 | 34847 ft | 522 kts | 72° |
| 2026-05-06 02:32 | 34.45075 | -113.42525 | 34848 ft | 522 kts | 73° |
| 2026-05-06 02:32 | 34.47351 | -113.34135 | 34847 ft | 524 kts | 73° |
| 2026-05-06 02:33 | 34.49621 | -113.25719 | 34845 ft | 524 kts | 73° |
| 2026-05-06 02:33 | 34.50372 | -113.22930 | 34853 ft | 524 kts | 73° |
| 2026-05-06 02:34 | 34.54132 | -113.08930 | 34845 ft | 525 kts | 73° |
| 2026-05-06 02:34 | 34.56405 | -113.00436 | 34855 ft | 530 kts | 73° |
| 2026-05-06 02:35 | 34.58675 | -112.91917 | 34863 ft | 530 kts | 73° |
| 2026-05-06 02:35 | 34.60944 | -112.83380 | 34865 ft | 530 kts | 73° |
| 2026-05-06 02:36 | 34.63209 | -112.74839 | 34854 ft | 532 kts | 74° |
| 2026-05-06 02:36 | 34.65476 | -112.66254 | 34866 ft | 534 kts | 74° |
| 2026-05-06 02:37 | 34.67742 | -112.57642 | 34867 ft | 534 kts | 74° |
| 2026-05-06 02:37 | 34.69998 | -112.49033 | 34996 ft | 534 kts | 75° |
| 2026-05-06 02:38 | 34.71992 | -112.40322 | 34993 ft | 536 kts | 77° |
| 2026-05-06 02:38 | 34.73895 | -112.31600 | 34980 ft | 537 kts | 77° |
| 2026-05-06 02:39 | 34.75822 | -112.22750 | 34947 ft | 537 kts | 77° |
| 2026-05-06 02:39 | 34.77722 | -112.14019 | 34914 ft | 537 kts | 77° |
| 2026-05-06 02:40 | 34.79641 | -112.05198 | 34936 ft | 540 kts | 77° |
| 2026-05-06 02:40 | 34.81556 | -111.96349 | 34973 ft | 540 kts | 77° |
| 2026-05-06 02:41 | 34.83466 | -111.87488 | 34996 ft | 541 kts | 78° |
| 2026-05-06 02:41 | 34.85373 | -111.78614 | 34982 ft | 541 kts | 78° |
| 2026-05-06 02:42 | 34.87282 | -111.69698 | 35001 ft | 544 kts | 78° |
| 2026-05-06 02:42 | 34.89187 | -111.60755 | 34985 ft | 544 kts | 78° |
| 2026-05-06 02:43 | 34.91086 | -111.51814 | 34921 ft | 544 kts | 78° |
| 2026-05-06 02:43 | 34.92983 | -111.42845 | 34924 ft | 544 kts | 78° |
| 2026-05-06 02:44 | 34.94867 | -111.33900 | 34926 ft | 544 kts | 78° |
| 2026-05-06 02:44 | 34.96744 | -111.24957 | 34916 ft | 544 kts | 78° |
| 2026-05-06 02:45 | 34.98617 | -111.15999 | 34913 ft | 544 kts | 78° |
| 2026-05-06 02:45 | 35.00477 | -111.07076 | 34920 ft | 546 kts | 78° |
| 2026-05-06 02:46 | 35.02339 | -110.98085 | 34935 ft | 546 kts | 79° |
| 2026-05-06 02:46 | 35.04197 | -110.89077 | 34962 ft | 546 kts | 79° |
| 2026-05-06 02:47 | 35.06416 | -110.80182 | 34961 ft | 548 kts | 71° |
| 2026-05-06 02:47 | 35.09540 | -110.71574 | 34970 ft | 558 kts | 64° |
| 2026-05-06 02:48 | 35.13199 | -110.63184 | 34957 ft | 559 kts | 63° |
| 2026-05-06 02:48 | 35.16891 | -110.54805 | 34874 ft | 559 kts | 63° |
| 2026-05-06 02:49 | 35.20555 | -110.46402 | 34853 ft | 560 kts | 63° |
| 2026-05-06 02:49 | 35.24191 | -110.37998 | 34881 ft | 557 kts | 63° |
| 2026-05-06 02:50 | 35.27789 | -110.29659 | 34877 ft | 552 kts | 63° |
| 2026-05-06 02:50 | 35.31376 | -110.21329 | 34877 ft | 552 kts | 63° |
| 2026-05-06 02:51 | 35.34953 | -110.12998 | 34853 ft | 552 kts | 63° |
| 2026-05-06 02:51 | 35.38562 | -110.04579 | 34864 ft | 562 kts | 63° |
| 2026-05-06 02:52 | 35.42173 | -109.96121 | 34872 ft | 563 kts | 64° |
| 2026-05-06 02:52 | 35.45805 | -109.87591 | 34866 ft | 563 kts | 64° |
| 2026-05-06 02:53 | 35.49431 | -109.79058 | 34843 ft | 563 kts | 64° |
| 2026-05-06 02:53 | 35.53080 | -109.70454 | 34857 ft | 570 kts | 64° |
| 2026-05-06 02:54 | 35.56739 | -109.61797 | 34856 ft | 570 kts | 64° |
| 2026-05-06 02:54 | 35.60397 | -109.53121 | 34858 ft | 570 kts | 64° |
| 2026-05-06 02:55 | 35.64027 | -109.44482 | 34885 ft | 562 kts | 64° |
| 2026-05-06 02:55 | 35.67609 | -109.35951 | 34938 ft | 566 kts | 64° |
| 2026-05-06 02:56 | 35.71221 | -109.27320 | 34975 ft | 566 kts | 64° |
| 2026-05-06 02:56 | 35.74825 | -109.18682 | 35001 ft | 566 kts | 64° |
| 2026-05-06 02:57 | 35.78422 | -109.10041 | 35012 ft | 568 kts | 64° |
| 2026-05-06 02:57 | 35.82054 | -109.01293 | 34991 ft | 575 kts | 64° |
| 2026-05-06 02:58 | 35.85699 | -108.92488 | 34952 ft | 576 kts | 64° |
| 2026-05-06 02:58 | 35.89340 | -108.83669 | 34850 ft | 576 kts | 64° |
| 2026-05-06 02:59 | 35.92974 | -108.74843 | 34843 ft | 578 kts | 64° |
| 2026-05-06 02:59 | 35.96631 | -108.65938 | 34838 ft | 582 kts | 64° |
| 2026-05-06 03:00 | 36.00298 | -108.56985 | 34834 ft | 582 kts | 64° |
| 2026-05-06 03:00 | 36.03931 | -108.48084 | 34849 ft | 575 kts | 64° |
| 2026-05-06 03:01 | 36.07525 | -108.39263 | 34833 ft | 576 kts | 64° |
| 2026-05-06 03:01 | 36.11114 | -108.30428 | 34830 ft | 578 kts | 64° |
| 2026-05-06 03:02 | 36.14729 | -108.21507 | 34831 ft | 578 kts | 64° |
| 2026-05-06 03:02 | 36.18333 | -108.12588 | 34836 ft | 578 kts | 64° |
| 2026-05-06 03:03 | 36.21322 | -108.05171 | 34838 ft | 578 kts | 64° |
| 2026-05-06 03:03 | 36.25510 | -107.94748 | 34841 ft | 578 kts | 65° |
| 2026-05-06 03:04 | 36.29068 | -107.85869 | 34845 ft | 578 kts | 65° |
| 2026-05-06 03:04 | 36.32642 | -107.76924 | 34848 ft | 578 kts | 65° |
| 2026-05-06 03:05 | 36.36212 | -107.67964 | 34832 ft | 580 kts | 65° |
| 2026-05-06 03:05 | 36.39210 | -107.60420 | 34835 ft | 581 kts | 65° |
| 2026-05-06 03:06 | 36.42518 | -107.52064 | 34845 ft | 574 kts | 64° |
| 2026-05-06 03:06 | 36.46040 | -107.43162 | 34830 ft | 572 kts | 64° |
| 2026-05-06 03:07 | 36.49555 | -107.34252 | 34817 ft | 576 kts | 65° |
| 2026-05-06 03:07 | 36.53089 | -107.25263 | 34840 ft | 578 kts | 65° |
| 2026-05-06 03:08 | 36.56617 | -107.16266 | 34853 ft | 578 kts | 65° |
| 2026-05-06 03:08 | 36.60137 | -107.07262 | 34854 ft | 578 kts | 65° |
| 2026-05-06 03:09 | 36.63656 | -106.98235 | 34859 ft | 581 kts | 65° |
| 2026-05-06 03:09 | 36.67159 | -106.89223 | 34878 ft | 581 kts | 65° |
| 2026-05-06 03:10 | 36.70678 | -106.80142 | 34882 ft | 581 kts | 65° |
| 2026-05-06 03:10 | 36.74195 | -106.71046 | 34900 ft | 581 kts | 65° |
| 2026-05-06 03:11 | 36.77709 | -106.61928 | 34923 ft | 583 kts | 65° |
| 2026-05-06 03:11 | 36.81194 | -106.52849 | 34910 ft | 577 kts | 65° |
| 2026-05-06 03:12 | 36.84659 | -106.43809 | 34905 ft | 576 kts | 65° |
| 2026-05-06 03:12 | 36.88119 | -106.34758 | 34866 ft | 576 kts | 65° |
| 2026-05-06 03:13 | 36.91581 | -106.25670 | 34875 ft | 580 kts | 65° |
| 2026-05-06 03:13 | 36.95028 | -106.16595 | 34865 ft | 581 kts | 65° |
| 2026-05-06 03:14 | 36.98497 | -106.07438 | 34864 ft | 581 kts | 65° |
| 2026-05-06 03:14 | 37.01952 | -105.98288 | 34871 ft | 581 kts | 65° |
| 2026-05-06 03:15 | 37.05426 | -105.89058 | 34833 ft | 588 kts | 65° |
| 2026-05-06 03:15 | 37.08911 | -105.79775 | 34829 ft | 589 kts | 65° |
| 2026-05-06 03:16 | 37.12373 | -105.70529 | 34825 ft | 589 kts | 65° |
| 2026-05-06 03:16 | 37.15847 | -105.61222 | 34845 ft | 589 kts | 65° |
| 2026-05-06 03:17 | 37.19319 | -105.51887 | 34824 ft | 590 kts | 66° |
| 2026-05-06 03:17 | 37.22577 | -105.43104 | 34828 ft | 590 kts | 66° |
| 2026-05-06 03:18 | 37.26038 | -105.33744 | 34844 ft | 590 kts | 66° |
| 2026-05-06 03:18 | 37.29490 | -105.24376 | 34847 ft | 591 kts | 66° |
| 2026-05-06 03:19 | 37.32941 | -105.14991 | 34873 ft | 590 kts | 66° |
| 2026-05-06 03:19 | 37.36381 | -105.05608 | 34882 ft | 590 kts | 66° |